Time;durP1;ratioP1;P1;durP2;ratioP2;P2;SDS_P1;SDS_P2;PMS_P1;PMS_P2;Temp;Humidity;BMP_temperature;BMP_pressure;BME280_temperature;BME280_humidity;BME280_pressure;Samples;Min_cycle;Max_cycle;Signal;HPM_P1;HPM_P2
2022/09/04 00:01:56;;;;;;;11.55;6.15;;;;;;;16.33;90.30;95242.69;5065828;28;20178;-73
2022/09/04 00:04:41;;;;;;;9.40;5.80;;;;;;;16.32;89.98;95243.72;5064219;28;20179;-73
2022/09/04 00:07:21;;;;;;;10.73;6.78;;;;;;;16.26;90.04;95242.78;5062878;28;20178;-73
2022/09/04 00:10:04;;;;;;;9.38;5.88;;;;;;;16.19;90.28;95245.59;5060689;28;20208;-73
2022/09/04 00:12:37;;;;;;;9.80;6.80;;;;;;;16.17;90.91;95241.59;5059187;28;20586;-73
2022/09/04 00:15:13;;;;;;;10.30;5.95;;;;;;;16.16;91.22;95251.41;5047641;28;20186;-73
2022/09/04 00:17:51;;;;;;;9.57;6.55;;;;;;;16.17;91.17;95245.00;5062657;28;20188;-73
2022/09/04 00:20:36;;;;;;;11.33;6.87;;;;;;;16.16;90.82;95247.94;5062590;28;20621;-73
2022/09/04 00:23:18;;;;;;;16.23;8.53;;;;;;;16.14;91.10;95247.34;5020510;28;20747;-74
2022/09/04 00:25:56;;;;;;;13.33;6.27;;;;;;;16.12;91.09;95250.25;5063539;28;20629;-73
2022/09/04 00:28:36;;;;;;;15.27;7.63;;;;;;;16.15;90.83;95251.63;5069640;28;20186;-74
2022/09/04 00:31:23;;;;;;;14.63;7.80;;;;;;;16.11;90.82;95248.63;5067997;28;20237;-75
2022/09/04 00:33:53;;;;;;;15.33;7.97;;;;;;;16.10;90.83;95252.31;5069970;28;20182;-74
2022/09/04 00:36:23;;;;;;;15.97;7.97;;;;;;;16.08;90.89;95259.75;5069620;28;20225;-74
2022/09/04 00:38:55;;;;;;;15.63;7.93;;;;;;;16.06;91.28;95259.16;5069881;28;20194;-74
2022/09/04 00:41:32;;;;;;;12.13;7.43;;;;;;;16.05;90.94;95254.06;5073308;28;20178;-74
2022/09/04 00:44:21;;;;;;;12.40;7.33;;;;;;;16.07;90.65;95252.00;5073328;28;20186;-74
2022/09/04 00:47:16;;;;;;;13.20;7.85;;;;;;;16.06;90.61;95245.06;5073436;28;20922;-74
2022/09/04 00:50:03;;;;;;;12.83;7.40;;;;;;;16.07;90.33;95246.69;5073208;28;20252;-74
2022/09/04 00:52:56;;;;;;;10.87;6.73;;;;;;;16.05;89.87;95244.25;5072902;28;20189;-74
2022/09/04 00:55:43;;;;;;;12.30;7.43;;;;;;;16.02;89.64;95243.91;5072938;28;20186;-74
2022/09/04 00:58:40;;;;;;;11.55;7.15;;;;;;;15.96;90.12;95243.00;5073098;28;20268;-74
2022/09/04 01:01:05;;;;;;;16.20;7.10;;;;;;;15.90;89.95;95235.19;5073100;28;20178;-74
2022/09/04 01:03:58;;;;;;;12.47;6.57;;;;;;;15.97;90.04;95247.28;5072806;28;20707;-74
2022/09/04 01:06:28;;;;;;;9.50;6.40;;;;;;;15.95;90.02;95244.03;5072977;28;20178;-74
2022/09/04 01:09:23;;;;;;;9.47;6.20;;;;;;;15.89;90.17;95247.66;5072687;28;20186;-74
2022/09/04 01:12:15;;;;;;;10.73;6.10;;;;;;;15.89;90.30;95239.69;5071232;28;20680;-74
2022/09/04 01:14:47;;;;;;;9.52;5.80;;;;;;;15.88;90.21;95254.00;5072718;28;20175;-74
2022/09/04 01:17:37;;;;;;;11.20;6.67;;;;;;;15.90;90.10;95253.75;5064853;28;20588;-74
2022/09/04 01:20:54;;;;;;;9.80;6.37;;;;;;;15.91;89.99;95264.16;5072521;28;20170;-74
2022/09/04 01:23:44;;;;;;;9.20;6.70;;;;;;;15.87;89.80;95260.34;5038580;28;20190;-74
2022/09/04 01:26:23;;;;;;;10.67;5.80;;;;;;;15.85;89.83;95246.47;5072338;28;20657;-75
2022/09/04 01:29:19;;;;;;;10.90;5.67;;;;;;;15.83;89.79;95252.03;5072882;28;20641;-74
2022/09/04 01:31:48;;;;;;;8.53;5.63;;;;;;;15.84;89.09;95244.88;5072339;28;20221;-74
2022/09/04 01:34:35;;;;;;;11.83;7.17;;;;;;;15.79;89.13;95240.28;5072407;28;20664;-74
2022/09/04 01:37:06;;;;;;;10.70;6.43;;;;;;;15.74;89.50;95232.19;5072227;28;20249;-74
2022/09/04 01:39:36;;;;;;;43.20;25.70;;;;;;;15.72;90.06;95234.28;5072236;28;20181;-74
2022/09/04 01:42:11;;;;;;;38.90;22.87;;;;;;;15.73;90.25;95235.91;5054381;28;20559;-74
2022/09/04 01:44:36;;;;;;;39.07;24.40;;;;;;;15.71;90.22;95239.81;5072182;28;20182;-74
2022/09/04 01:47:17;;;;;;;34.60;18.50;;;;;;;15.59;90.11;95212.47;5072142;28;20170;-74
2022/09/04 01:49:46;;;;;;;24.03;12.57;;;;;;;15.70;89.78;95239.00;5072144;28;20197;-74
2022/09/04 01:52:28;;;;;;;24.67;13.83;;;;;;;15.72;89.82;95234.28;5070868;28;20174;-74
2022/09/04 01:55:40;;;;;;;19.70;12.13;;;;;;;15.73;89.58;95235.91;5071945;28;20178;-74
2022/09/04 01:58:46;;;;;;;13.13;8.27;;;;;;;15.67;89.20;95236.81;5030711;28;20195;-74
2022/09/04 02:01:26;;;;;;;18.33;10.50;;;;;;;15.61;89.37;95226.31;5069427;28;20190;-74
2022/09/04 02:04:19;;;;;;;15.23;9.90;;;;;;;15.58;89.76;95232.09;5071656;28;20225;-74
2022/09/04 02:06:57;;;;;;;15.27;8.10;;;;;;;15.57;89.85;95228.63;5065036;28;20688;-74
2022/09/04 02:09:42;;;;;;;14.87;9.47;;;;;;;15.41;89.52;95192.97;5071901;28;20222;-75
2022/09/04 02:12:19;;;;;;;16.73;8.57;;;;;;;15.60;89.21;95222.88;5071596;28;20190;-74
2022/09/04 02:15:09;;;;;;;23.63;14.10;;;;;;;15.57;89.20;95220.66;5071398;28;20173;-74
2022/09/04 02:17:46;;;;;;;29.43;17.43;;;;;;;15.55;89.28;95232.56;5071410;28;20190;-74
2022/09/04 02:20:25;;;;;;;32.73;15.60;;;;;;;15.47;89.35;95215.13;5071442;28;20182;-74
2022/09/04 02:23:25;;;;;;;31.77;18.57;;;;;;;15.54;89.22;95231.75;5071291;28;20616;-75
2022/09/04 02:26:02;;;;;;;31.53;17.47;;;;;;;15.48;89.04;95212.22;5071333;28;20210;-75
2022/09/04 02:29:03;;;;;;;36.37;20.50;;;;;;;15.51;89.33;95218.91;5071380;28;20265;-74
2022/09/04 02:31:39;;;;;;;25.03;15.73;;;;;;;15.52;89.33;95211.75;5014066;28;20699;-75
2022/09/04 02:34:41;;;;;;;18.50;12.00;;;;;;;15.51;89.35;95208.31;5085589;28;20189;-74
2022/09/04 02:37:27;;;;;;;27.47;16.50;;;;;;;15.50;89.61;95204.03;5091383;28;20640;-74
2022/09/04 02:39:59;;;;;;;17.57;9.93;;;;;;;15.55;89.39;95217.47;5091428;28;20193;-74
2022/09/04 02:42:56;;;;;;;23.17;14.13;;;;;;;15.44;89.77;95216.38;5091206;28;20177;-74
2022/09/04 02:45:58;;;;;;;18.37;11.23;;;;;;;15.46;89.61;95216.97;5049967;28;20185;-74
2022/09/04 02:48:36;;;;;;;10.27;7.70;;;;;;;15.34;89.25;95204.75;5091282;28;20173;-74
2022/09/04 02:51:17;;;;;;;13.50;8.10;;;;;;;15.39;89.64;95239.34;5091241;28;20312;-74
2022/09/04 02:54:01;;;;;;;9.47;5.63;;;;;;;15.39;89.67;95232.19;5090997;28;20181;-74
2022/09/04 02:56:45;;;;;;;14.73;7.73;;;;;;;15.37;89.56;95236.13;5090825;28;20234;-74
2022/09/04 02:59:13;;;;;;;14.77;7.32;;;;;;;15.36;89.83;95234.50;5090920;28;20539;-74
2022/09/04 03:01:50;;;;;;;9.37;7.53;;;;;;;15.05;90.33;95187.91;5090629;28;20204;-74
2022/09/04 03:04:51;;;;;;;12.53;6.60;;;;;;;15.44;90.37;95242.94;5106633;28;20240;-74
2022/09/04 03:07:28;;;;;;;17.33;10.27;;;;;;;15.53;90.66;95237.28;5090923;28;20605;-74
2022/09/04 03:09:59;;;;;;;22.90;14.77;;;;;;;15.58;91.25;95240.84;5091033;28;20533;-74
2022/09/04 03:12:46;;;;;;;23.80;9.93;;;;;;;15.63;91.64;95241.00;5090800;28;20268;-74
2022/09/04 03:15:27;;;;;;;29.30;14.37;;;;;;;15.59;91.92;95236.34;5090968;28;20185;-74
2022/09/04 03:18:04;;;;;;;36.40;19.63;;;;;;;15.53;92.60;95235.41;5090998;28;20177;-74
2022/09/04 03:21:00;;;;;;;35.20;19.57;;;;;;;15.56;93.10;95239.50;5090679;28;20181;-74
2022/09/04 03:23:43;;;;;;;22.77;10.97;;;;;;;15.62;92.47;95239.38;5088719;28;20238;-74
2022/09/04 03:26:26;;;;;;;29.73;16.93;;;;;;;15.57;92.77;95230.50;5090658;28;20178;-74
2022/09/04 03:29:05;;;;;;;14.07;8.70;;;;;;;15.51;93.54;95234.03;5090538;28;20178;-74
2022/09/04 03:31:45;;;;;;;27.43;9.37;;;;;;;15.56;93.74;95236.84;5087684;28;20190;-75
2022/09/04 03:34:24;;;;;;;16.47;10.50;;;;;;;15.40;93.95;95220.53;5070383;28;20196;-74
2022/09/04 03:36:59;;;;;;;19.53;11.43;;;;;;;15.56;94.25;95256.22;5070415;28;20181;-74
2022/09/04 03:39:51;;;;;;;17.87;10.77;;;;;;;15.62;94.29;95249.19;5070404;28;20260;-75
2022/09/04 03:42:51;;;;;;;14.97;9.27;;;;;;;15.70;94.04;95249.63;5070185;28;20261;-74
2022/09/04 03:45:51;;;;;;;13.23;8.13;;;;;;;15.77;93.13;95257.47;5050565;28;20308;-75
2022/09/04 03:48:34;;;;;;;21.07;8.70;;;;;;;15.71;92.91;95263.72;5070414;28;20641;-74
2022/09/04 03:51:41;;;;;;;22.07;7.37;;;;;;;15.60;93.58;95254.72;5070065;28;20221;-74
2022/09/04 03:54:14;;;;;;;13.83;7.67;;;;;;;15.72;93.57;95278.59;5070374;28;20182;-74
2022/09/04 03:57:01;;;;;;;12.13;6.63;;;;;;;15.76;93.50;95272.59;5070418;28;20174;-74
2022/09/04 03:59:44;;;;;;;15.83;7.53;;;;;;;15.75;92.99;95270.97;5070110;28;20182;-74
2022/09/04 04:02:48;;;;;;;17.03;7.73;;;;;;;15.70;93.27;95270.88;5070038;28;20193;-75
2022/09/04 04:05:25;;;;;;;12.70;7.30;;;;;;;15.76;93.32;95285.03;5070300;28;20992;-75
2022/09/04 04:08:06;;;;;;;15.50;8.13;;;;;;;15.75;93.39;95292.19;5070140;28;20193;-75
2022/09/04 04:10:49;;;;;;;13.63;7.70;;;;;;;15.84;93.26;95305.94;5069839;28;20695;-75
2022/09/04 04:13:35;;;;;;;12.07;7.63;;;;;;;15.92;93.14;95316.19;5069960;28;20212;-74
2022/09/04 04:16:13;;;;;;;11.07;7.15;;;;;;;15.97;92.54;95310.22;5073560;28;20201;-75
2022/09/04 04:19:07;;;;;;;10.63;7.43;;;;;;;15.95;92.51;95306.97;5073656;28;20641;-75
2022/09/04 04:21:36;;;;;;;13.57;6.47;;;;;;;15.90;92.80;95313.00;5073527;28;20175;-74
2022/09/04 04:24:27;;;;;;;12.53;7.87;;;;;;;15.87;92.64;95332.03;5073657;28;20182;-75
2022/09/04 04:27:20;;;;;;;12.37;7.03;;;;;;;15.79;92.80;95319.91;5073457;28;20179;-75
2022/09/04 04:30:06;;;;;;;12.80;7.37;;;;;;;15.86;93.13;95325.09;5073420;28;20677;-75
2022/09/04 04:33:02;;;;;;;23.03;7.70;;;;;;;15.88;92.80;95336.31;5084796;28;20320;-75
2022/09/04 04:36:00;;;;;;;12.90;8.50;;;;;;;15.92;92.70;95336.63;5093716;28;20186;-75
2022/09/04 04:38:26;;;;;;;18.60;9.83;;;;;;;15.97;92.54;95332.25;5093503;28;20543;-75
2022/09/04 04:41:03;;;;;;;21.23;10.23;;;;;;;15.99;92.08;95324.06;5093010;28;20640;-75
2022/09/04 04:44:06;;;;;;;32.93;8.73;;;;;;;15.94;92.02;95319.44;5091371;28;20265;-75
2022/09/04 04:47:14;;;;;;;78.27;9.10;;;;;;;15.80;91.39;95321.53;5091307;28;20177;-74
2022/09/04 04:50:20;;;;;;;11.45;7.35;;;;;;;15.75;92.57;95325.91;5092680;28;20228;-75
2022/09/04 04:53:15;;;;;;;26.80;9.15;;;;;;;15.70;93.18;95331.91;5091843;28;20707;-75
2022/09/04 04:55:50;;;;;;;18.80;8.80;;;;;;;15.56;93.59;95319.13;5074177;28;20208;-75
2022/09/04 04:58:23;;;;;;;15.20;8.70;;;;;;;15.69;94.19;95337.44;5092779;28;20294;-75
2022/09/04 05:01:16;;;;;;;33.33;8.63;;;;;;;15.43;94.40;95336.81;5091506;28;20178;-75
2022/09/04 05:04:14;;;;;;;14.33;8.17;;;;;;;15.43;95.65;95338.66;5092799;28;20177;-74
2022/09/04 05:07:19;;;;;;;24.63;9.50;;;;;;;15.35;95.92;95329.19;5063893;28;20213;-75
2022/09/04 05:10:28;;;;;;;15.07;8.80;;;;;;;15.39;96.96;95325.03;5060950;28;20596;-74
2022/09/04 05:13:19;;;;;;;14.10;8.37;;;;;;;15.53;97.41;95319.53;5081183;28;20193;-74
2022/09/04 05:16:09;;;;;;;17.63;8.63;;;;;;;15.62;96.41;95321.66;5092465;28;20170;-74
2022/09/04 05:18:57;;;;;;;19.70;7.93;;;;;;;15.67;95.42;95320.94;5078235;28;20221;-74
2022/09/04 05:21:48;;;;;;;27.83;9.33;;;;;;;15.63;95.30;95327.75;5092336;28;20212;-74
2022/09/04 05:24:19;;;;;;;25.63;9.80;;;;;;;15.33;96.31;95347.19;5078007;28;20197;-74
2022/09/04 05:27:07;;;;;;;44.60;10.20;;;;;;;15.18;97.13;95346.00;5091544;28;20261;-74
2022/09/04 05:29:54;;;;;;;44.60;11.10;;;;;;;15.25;97.38;95350.16;5092188;28;20604;-74
2022/09/04 05:32:52;;;;;;;15.40;9.63;;;;;;;15.39;98.33;95346.25;5089265;28;20257;-74
2022/09/04 05:35:35;;;;;;;22.43;9.90;;;;;;;15.54;97.57;95345.88;5081439;28;20239;-74
2022/09/04 05:38:31;;;;;;;21.40;9.83;;;;;;;15.58;96.96;95341.72;5088396;28;20177;-74
2022/09/04 05:41:10;;;;;;;17.10;10.13;;;;;;;15.76;97.20;95354.06;5094055;28;20237;-74
2022/09/04 05:44:04;;;;;;;23.67;10.77;;;;;;;15.92;96.69;95356.03;5091996;28;20246;-74
2022/09/04 05:47:07;;;;;;;19.53;9.80;;;;;;;16.09;96.28;95350.81;5091368;28;20174;-74
2022/09/04 05:50:09;;;;;;;16.87;9.73;;;;;;;16.26;95.22;95350.94;5091856;28;20208;-74
2022/09/04 05:52:58;;;;;;;19.52;9.98;;;;;;;16.33;94.31;95338.34;5091524;28;20254;-74
2022/09/04 05:55:54;;;;;;;21.20;11.18;;;;;;;16.47;92.79;95345.00;5091442;28;20182;-74
2022/09/04 05:58:32;;;;;;;21.58;12.27;;;;;;;16.40;93.16;95331.03;5091049;28;20174;-75
2022/09/04 06:01:05;;;;;;;21.67;10.20;;;;;;;16.48;92.89;95330.66;5091564;28;20640;-75
2022/09/04 06:03:54;;;;;;;23.63;11.15;;;;;;;16.58;93.33;95334.34;5091146;28;20180;-75
2022/09/04 06:06:21;;;;;;;19.25;9.75;;;;;;;16.57;92.87;95300.81;5091759;28;20277;-74
2022/09/04 06:09:37;;;;;;;18.50;11.40;;;;;;;16.80;92.69;95320.41;5091665;28;20177;-74
2022/09/04 06:12:31;;;;;;;15.87;10.40;;;;;;;16.65;91.44;95333.41;5044783;28;20566;-75
2022/09/04 06:15:11;;;;;;;17.30;10.82;;;;;;;16.69;92.78;95314.06;5090141;28;20185;-74
2022/09/04 06:17:42;;;;;;;18.77;11.70;;;;;;;16.74;91.32;95324.84;5088865;28;20652;-76
2022/09/04 06:20:17;;;;;;;18.83;11.73;;;;;;;16.88;91.38;95323.50;5090100;28;20181;-75
2022/09/04 06:23:07;;;;;;;21.70;12.70;;;;;;;17.13;91.83;95324.97;5090316;28;20227;-75
2022/09/04 06:25:42;;;;;;;19.40;12.32;;;;;;;17.54;89.69;95326.47;5089988;28;20181;-75
2022/09/04 06:28:08;;;;;;;21.35;13.23;;;;;;;18.43;87.73;95327.22;5090808;28;20566;-75
2022/09/04 06:30:44;;;;;;;18.88;13.02;;;;;;;19.63;80.82;95322.66;5090382;28;20205;-75
2022/09/04 06:33:29;;;;;;;20.88;12.73;;;;;;;20.59;75.53;95332.03;5090319;28;20232;-74
2022/09/04 06:36:00;;;;;;;20.25;12.85;;;;;;;21.52;73.70;95334.72;5090620;28;20178;-75
2022/09/04 06:38:50;;;;;;;24.38;12.98;;;;;;;22.67;69.97;95339.38;5089809;28;20205;-75
2022/09/04 06:41:40;;;;;;;19.23;12.68;;;;;;;23.75;64.08;95347.41;5090062;28;20165;-75
2022/09/04 06:44:24;;;;;;;18.15;12.85;;;;;;;24.44;61.68;95338.16;5090295;28;20200;-75
2022/09/04 06:47:08;;;;;;;19.63;12.05;;;;;;;24.77;61.29;95331.84;5089319;28;20177;-75
2022/09/04 06:49:58;;;;;;;18.20;12.18;;;;;;;25.05;60.15;95349.06;5085824;28;20208;-75
2022/09/04 06:52:35;;;;;;;20.20;11.23;;;;;;;25.21;59.10;95344.25;5089242;28;20192;-74
2022/09/04 06:55:32;;;;;;;18.50;12.20;;;;;;;25.06;57.76;95341.78;5089174;28;20196;-75
2022/09/04 06:58:34;;;;;;;20.60;11.45;;;;;;;25.03;59.61;95339.66;5089358;28;20174;-75
2022/09/04 07:01:04;;;;;;;17.77;11.38;;;;;;;25.30;59.97;95336.31;5090285;28;20188;-75
2022/09/04 07:03:32;;;;;;;16.70;10.75;;;;;;;25.51;57.82;95338.41;5090389;28;20641;-75
2022/09/04 07:06:09;;;;;;;18.63;10.77;;;;;;;25.22;59.96;95327.00;5090183;28;20185;-74
2022/09/04 07:08:47;;;;;;;16.85;10.63;;;;;;;25.20;59.16;95326.47;5089185;28;20657;-73
2022/09/04 07:12:05;;;;;;;17.80;11.50;;;;;;;25.02;60.29;95329.97;5088123;28;20673;-75
2022/09/04 07:14:43;;;;;;;14.85;9.40;;;;;;;25.21;59.60;95328.09;5021254;28;20196;-75
2022/09/04 07:17:17;;;;;;;15.65;10.48;;;;;;;25.14;58.37;95333.84;5027033;28;20176;-75
2022/09/04 07:20:07;;;;;;;18.98;10.73;;;;;;;24.90;60.38;95334.94;5070892;28;20196;-75
2022/09/04 07:22:36;;;;;;;18.05;10.82;;;;;;;25.32;57.85;95337.63;5079357;28;20188;-73
2022/09/04 07:25:28;;;;;;;18.40;11.40;;;;;;;25.57;58.24;95344.53;5084922;28;20292;-74
2022/09/04 07:28:32;;;;;;;17.05;10.75;;;;;;;25.88;57.86;95329.50;5059421;28;20215;-75
2022/09/04 07:31:04;;;;;;;18.95;10.90;;;;;;;26.12;55.44;95333.97;5082874;28;20292;-75
2022/09/04 07:33:57;;;;;;;19.02;11.10;;;;;;;26.33;55.86;95337.13;5082477;28;20294;-75
2022/09/04 07:36:54;;;;;;;17.33;11.50;;;;;;;26.41;54.61;95339.94;5082748;28;20185;-75
2022/09/04 07:39:38;;;;;;;17.70;11.57;;;;;;;26.02;54.67;95353.03;5077787;28;21916;-75
2022/09/04 07:42:15;;;;;;;16.55;11.35;;;;;;;26.04;57.05;95357.03;5078525;28;20231;-75
2022/09/04 07:44:48;;;;;;;17.60;10.98;;;;;;;26.33;55.77;95364.94;5082758;28;20200;-75
2022/09/04 07:47:35;;;;;;;16.38;10.70;;;;;;;26.52;55.23;95360.25;5081049;28;20217;-75
2022/09/04 07:50:23;;;;;;;16.42;12.07;;;;;;;26.33;54.47;95366.81;5085335;28;20284;-73
2022/09/04 07:53:23;;;;;;;21.92;11.85;;;;;;;25.78;55.42;95347.75;5090615;28;20174;-73
2022/09/04 07:55:51;;;;;;;20.27;12.75;;;;;;;25.70;57.91;95360.00;5089960;28;20201;-73
2022/09/04 07:58:58;;;;;;;19.58;12.60;;;;;;;25.90;56.41;95366.97;5091295;28;20669;-74
2022/09/04 08:01:41;;;;;;;17.23;10.95;;;;;;;25.95;57.18;95358.03;4992898;28;20197;-73
2022/09/04 08:04:46;;;;;;;17.02;10.88;;;;;;;25.67;55.60;95362.50;5080599;28;20212;-74
2022/09/04 08:07:20;;;;;;;17.77;12.10;;;;;;;25.33;57.12;95360.81;5086512;28;20182;-73
2022/09/04 08:09:51;;;;;;;18.65;11.73;;;;;;;25.34;57.78;95375.88;5085090;28;20204;-73
2022/09/04 08:12:26;;;;;;;18.77;11.98;;;;;;;25.51;56.83;95380.78;5082166;28;20677;-73
2022/09/04 08:15:10;;;;;;;20.58;12.93;;;;;;;25.84;56.35;95376.25;5085764;28;20189;-73
2022/09/04 08:17:53;;;;;;;18.60;11.23;;;;;;;25.66;56.68;95377.88;5085154;28;20181;-73
2022/09/04 08:20:44;;;;;;;18.02;11.80;;;;;;;25.19;57.09;95368.00;5089800;28;20600;-73
2022/09/04 08:23:29;;;;;;;18.38;10.93;;;;;;;25.24;58.77;95369.84;5087770;28;20181;-73
2022/09/04 08:26:31;;;;;;;20.67;10.73;;;;;;;25.01;58.42;95366.88;5089982;28;20190;-73
2022/09/04 08:29:22;;;;;;;18.95;10.45;;;;;;;25.09;59.24;95365.44;5091481;28;20198;-73
2022/09/04 08:32:12;;;;;;;17.95;11.25;;;;;;;25.50;57.71;95365.69;5081625;28;20221;-72
2022/09/04 08:34:56;;;;;;;16.92;11.23;;;;;;;25.75;56.19;95359.13;5068514;28;20177;-72
2022/09/04 08:37:32;;;;;;;15.15;10.15;;;;;;;26.05;56.12;95369.44;5081050;28;20197;-73
2022/09/04 08:40:23;;;;;;;16.10;10.60;;;;;;;26.32;55.63;95367.91;5088122;28;20173;-72
2022/09/04 08:43:04;;;;;;;14.88;9.57;;;;;;;26.51;54.94;95363.25;5083152;28;20190;-72
2022/09/04 08:45:51;;;;;;;16.27;9.73;;;;;;;26.72;56.07;95367.19;5084595;28;20615;-73
2022/09/04 08:48:40;;;;;;;15.00;9.70;;;;;;;26.15;53.18;95368.44;5084406;28;20224;-73
2022/09/04 08:51:06;;;;;;;13.57;8.10;;;;;;;26.16;54.22;95361.97;5074678;28;20210;-74
2022/09/04 08:53:44;;;;;;;13.45;7.60;;;;;;;26.14;52.20;95320.97;5084656;28;20563;-74
2022/09/04 08:56:34;;;;;;;9.40;6.47;;;;;;;26.19;51.88;95342.47;5083385;28;20196;-74
2022/09/04 08:59:50;;;;;;;10.38;5.32;;;;;;;26.24;50.82;95351.28;5084854;28;20178;-74
2022/09/04 09:03:06;;;;;;;12.30;6.15;;;;;;;26.06;52.09;95349.44;5045593;28;20185;-74
2022/09/04 09:05:54;;;;;;;9.27;5.10;;;;;;;26.29;55.24;95342.34;5029931;28;20191;-74
2022/09/04 09:08:47;;;;;;;6.82;3.25;;;;;;;26.21;49.36;95335.66;5089411;28;20185;-74
2022/09/04 09:11:43;;;;;;;7.85;4.90;;;;;;;25.82;51.35;95343.38;5082803;28;20235;-74
2022/09/04 09:14:50;;;;;;;11.60;6.93;;;;;;;25.50;54.67;95334.13;5084006;28;20248;-74
2022/09/04 09:17:39;;;;;;;5.38;4.75;;;;;;;25.21;52.44;95349.66;5081514;28;20208;-74
2022/09/04 09:20:29;;;;;;;5.07;3.80;;;;;;;25.47;52.14;95344.69;5080989;28;20257;-75
2022/09/04 09:23:27;;;;;;;5.20;3.88;;;;;;;25.62;52.92;95349.88;5086351;28;20185;-75
2022/09/04 09:26:25;;;;;;;8.07;5.05;;;;;;;25.69;53.80;95336.81;5065340;28;20178;-74
2022/09/04 09:29:11;;;;;;;7.75;4.30;;;;;;;25.92;54.38;95338.63;5079797;28;20216;-74
2022/09/04 09:31:42;;;;;;;4.72;4.10;;;;;;;26.33;52.29;95327.13;5086088;28;20232;-74
2022/09/04 09:34:11;;;;;;;4.30;3.90;;;;;;;26.30;51.11;95333.13;5084896;28;20569;-76
2022/09/04 09:36:58;;;;;;;5.53;4.43;;;;;;;26.04;50.62;95331.94;5082105;28;20227;-75
2022/09/04 09:39:47;;;;;;;5.97;4.15;;;;;;;25.72;51.30;95330.03;5087192;28;20169;-75
2022/09/04 09:42:31;;;;;;;8.75;4.47;;;;;;;25.66;51.92;95326.63;5087303;28;20652;-75
2022/09/04 09:45:24;;;;;;;5.18;3.92;;;;;;;25.73;54.63;95324.34;5089274;28;20209;-75
2022/09/04 09:47:59;;;;;;;7.72;4.38;;;;;;;25.94;54.91;95324.84;5087875;28;20176;-75
2022/09/04 09:50:47;;;;;;;5.93;3.83;;;;;;;25.88;51.90;95320.59;5084892;28;20596;-75
2022/09/04 09:53:37;;;;;;;6.38;3.80;;;;;;;25.71;52.79;95321.16;5086411;28;20277;-74
2022/09/04 09:56:27;;;;;;;7.93;4.07;;;;;;;25.56;52.42;95300.59;5081874;28;20588;-74
2022/09/04 09:58:58;;;;;;;4.72;4.00;;;;;;;25.55;54.00;95304.38;5083486;28;20189;-75
2022/09/04 10:01:23;;;;;;;6.68;4.00;;;;;;;25.72;54.24;95297.66;5085295;28;20177;-74
2022/09/04 10:03:58;;;;;;;5.20;4.32;;;;;;;25.86;54.40;95301.19;5085463;28;20276;-74
2022/09/04 10:06:43;;;;;;;5.53;4.20;;;;;;;25.62;52.80;95304.03;5083855;28;20173;-75
2022/09/04 10:09:18;;;;;;;7.22;4.72;;;;;;;25.42;53.39;95312.44;5079941;28;20201;-75
2022/09/04 10:12:22;;;;;;;7.00;4.57;;;;;;;25.58;55.38;95307.59;5083669;28;20193;-75
2022/09/04 10:15:22;;;;;;;8.77;4.65;;;;;;;25.61;52.80;95304.31;5035671;28;20197;-75
2022/09/04 10:18:08;;;;;;;7.35;5.28;;;;;;;25.63;55.13;95291.34;5085161;28;20223;-75
2022/09/04 10:21:09;;;;;;;6.78;4.43;;;;;;;25.37;54.83;95282.81;5084026;28;20553;-76
2022/09/04 10:23:37;;;;;;;5.05;4.50;;;;;;;25.46;54.69;95281.06;5084725;28;20282;-74
2022/09/04 10:26:05;;;;;;;8.30;4.18;;;;;;;25.44;53.83;95277.84;5083203;28;20181;-75
2022/09/04 10:28:58;;;;;;;7.38;4.88;;;;;;;25.39;53.83;95280.66;5088151;28;20184;-76
2022/09/04 10:31:37;;;;;;;8.27;4.90;;;;;;;25.43;55.41;95282.44;5081210;28;20209;-76
2022/09/04 10:34:22;;;;;;;5.43;4.60;;;;;;;25.49;55.75;95285.88;5082610;28;20203;-75
2022/09/04 10:37:16;;;;;;;10.98;5.07;;;;;;;25.43;57.76;95287.84;5085796;28;20227;-75
2022/09/04 10:42:51;;;;;;;7.22;4.95;;;;;;;25.47;58.12;95277.28;5086264;28;20224;-75
2022/09/04 10:45:31;;;;;;;11.77;5.65;;;;;;;25.40;57.63;95266.06;5087133;28;20197;-75
2022/09/04 10:48:14;;;;;;;10.20;4.82;;;;;;;25.50;56.08;95261.31;5082528;28;20186;-75
2022/09/04 10:51:00;;;;;;;7.18;4.78;;;;;;;25.53;57.56;95259.91;5085543;28;20552;-75
2022/09/04 10:53:58;;;;;;;5.30;4.10;;;;;;;25.64;56.00;95265.97;5084698;28;20181;-74
2022/09/04 10:56:40;;;;;;;6.25;4.80;;;;;;;25.73;53.63;95256.13;5084814;28;20173;-74
2022/09/04 10:59:29;;;;;;;6.30;4.03;;;;;;;25.68;54.31;95253.50;5068988;28;20228;-74
2022/09/04 11:02:31;;;;;;;5.75;4.00;;;;;;;25.48;53.71;95254.63;5088296;28;20173;-74
2022/09/04 11:05:24;;;;;;;6.93;4.35;;;;;;;25.43;55.82;95260.06;5084418;28;20291;-74
2022/09/04 11:08:02;;;;;;;7.57;5.35;;;;;;;25.52;55.42;95240.22;5082349;28;20196;-74
2022/09/04 11:10:57;;;;;;;6.43;4.72;;;;;;;25.60;56.14;95243.41;5078798;28;20211;-74
2022/09/04 11:13:22;;;;;;;4.45;3.85;;;;;;;25.60;53.35;95238.00;5084785;28;20206;-75
2022/09/04 11:16:15;;;;;;;5.93;3.80;;;;;;;25.69;52.59;95245.09;5087118;28;20204;-75
2022/09/04 11:18:44;;;;;;;5.88;3.70;;;;;;;25.85;53.45;95241.06;5089364;28;20165;-75
2022/09/04 11:21:43;;;;;;;5.40;4.00;;;;;;;25.91;52.66;95230.97;5082972;28;20173;-74
2022/09/04 11:24:40;;;;;;;6.30;3.75;;;;;;;25.92;51.61;95230.69;5085060;28;22110;-74
2022/09/04 11:27:35;;;;;;;4.82;3.83;;;;;;;25.97;53.11;95224.38;5080854;28;20305;-74
2022/09/04 11:30:15;;;;;;;4.25;3.63;;;;;;;26.10;52.39;95230.91;5060089;28;20232;-74
2022/09/04 11:32:54;;;;;;;4.38;3.63;;;;;;;26.14;52.19;95242.69;5082567;28;20308;-74
2022/09/04 11:35:45;;;;;;;6.75;4.28;;;;;;;26.17;53.44;95237.50;5079155;28;20181;-75
2022/09/04 11:38:16;;;;;;;4.97;3.63;;;;;;;26.23;53.61;95225.50;5080336;28;20173;-74
2022/09/04 11:41:00;;;;;;;6.35;3.83;;;;;;;26.13;52.81;95228.38;5076679;28;20522;-76
2022/09/04 11:43:38;;;;;;;5.07;3.30;;;;;;;26.11;52.91;95225.19;5076908;28;20177;-75
2022/09/04 11:46:18;;;;;;;9.48;3.85;;;;;;;26.26;52.58;95221.44;5078860;28;20177;-74
2022/09/04 11:48:57;;;;;;;3.55;2.85;;;;;;;26.28;50.04;95221.94;5084801;28;20649;-75
2022/09/04 11:51:41;;;;;;;6.90;3.03;;;;;;;26.39;51.29;95220.59;5080057;28;20680;-75
2022/09/04 11:54:39;;;;;;;5.35;3.10;;;;;;;26.50;53.32;95222.00;5080558;28;20184;-75
2022/09/04 11:57:26;;;;;;;5.28;3.00;;;;;;;26.50;51.12;95203.09;5073559;28;20170;-75
2022/09/04 12:00:06;;;;;;;8.70;3.60;;;;;;;26.50;50.96;95219.31;5075605;28;20174;-75
2022/09/04 12:03:06;;;;;;;6.38;3.10;;;;;;;26.50;49.58;95205.78;5074028;28;20676;-75
2022/09/04 12:05:49;;;;;;;4.60;3.40;;;;;;;26.62;51.48;95189.88;5082980;28;20652;-75
2022/09/04 12:08:42;;;;;;;5.32;3.38;;;;;;;26.79;51.32;95189.25;5090723;28;20170;-76
2022/09/04 12:11:18;;;;;;;3.15;2.85;;;;;;;26.97;51.77;95187.50;5090776;28;20387;-76
2022/09/04 12:13:58;;;;;;;6.43;3.63;;;;;;;27.11;52.83;95187.44;5090780;28;20561;-76
2022/09/04 12:16:56;;;;;;;4.43;3.38;;;;;;;27.18;50.23;95185.91;5090698;28;20201;-76
2022/09/04 12:19:45;;;;;;;5.28;2.80;;;;;;;27.01;49.63;95185.78;5045465;28;20197;-76
2022/09/04 12:22:29;;;;;;;3.30;3.00;;;;;;;26.55;48.83;95181.38;5090520;28;20174;-76
2022/09/04 12:25:22;;;;;;;4.70;2.97;;;;;;;26.24;50.86;95189.28;5090392;28;20552;-76
2022/09/04 12:27:51;;;;;;;4.10;2.97;;;;;;;26.10;50.90;95191.22;5082983;28;20711;-76
2022/09/04 12:30:24;;;;;;;4.70;3.05;;;;;;;25.90;50.70;95191.59;5075420;28;20201;-76
2022/09/04 12:33:32;;;;;;;5.00;3.03;;;;;;;25.73;51.17;95191.38;5077372;28;20224;-76
2022/09/04 12:36:20;;;;;;;3.35;2.92;;;;;;;25.67;53.13;95192.56;5081373;28;20257;-76
2022/09/04 12:39:14;;;;;;;3.58;3.03;;;;;;;25.63;52.91;95191.56;5086652;28;20178;-75
2022/09/04 12:41:58;;;;;;;6.25;2.92;;;;;;;25.61;53.25;95189.16;5079467;28;20174;-75
2022/09/04 12:44:44;;;;;;;4.25;2.88;;;;;;;25.58;53.45;95188.94;5091574;28;20180;-76
2022/09/04 12:47:36;;;;;;;3.88;2.90;;;;;;;25.52;53.36;95186.31;5092551;28;20177;-76
2022/09/04 12:50:14;;;;;;;4.47;3.10;;;;;;;25.49;53.79;95183.41;5065373;28;20296;-76
2022/09/04 12:53:12;;;;;;;3.83;3.30;;;;;;;25.47;53.22;95186.41;5090281;28;21063;-76